createdAt,value
2023-03-11T00:01:41.045Z,3.93
2023-03-11T00:06:44.488Z,3.27
2023-03-11T00:11:49.121Z,2.70
2023-03-11T00:16:52.264Z,5.43
2023-03-11T00:21:55.733Z,4.40
2023-03-11T00:27:00.111Z,2.87
2023-03-11T00:32:06.310Z,5.90
2023-03-11T00:37:10.139Z,5.47
2023-03-11T00:42:14.653Z,4.00
2023-03-11T00:47:17.964Z,2.47
2023-03-11T00:52:21.017Z,4.10
2023-03-11T00:57:27.867Z,3.77
2023-03-11T01:02:31.365Z,8.07
2023-03-11T01:07:34.779Z,7.90
2023-03-11T01:12:44.090Z,3.43
2023-03-11T01:17:47.183Z,3.77
2023-03-11T01:22:50.495Z,2.93
2023-03-11T01:27:54.940Z,3.27
2023-03-11T01:32:59.110Z,4.93
2023-03-11T01:38:04.792Z,4.70
2023-03-11T01:43:47.871Z,4.17
2023-03-11T01:49:16.927Z,5.03
2023-03-11T01:54:23.757Z,4.93
2023-03-11T01:59:32.119Z,3.47
2023-03-11T02:04:37.137Z,3.67
2023-03-11T02:09:40.225Z,3.50
2023-03-11T02:14:48.693Z,4.33
2023-03-11T02:20:12.261Z,7.27
2023-03-11T02:25:26.129Z,7.67
2023-03-11T02:30:35.086Z,3.27
2023-03-11T02:35:39.151Z,4.10
2023-03-11T02:40:51.842Z,3.10
2023-03-11T02:45:58.816Z,2.63
2023-03-11T02:51:04.612Z,4.00
2023-03-11T02:56:08.771Z,5.80
2023-03-11T03:01:13.406Z,7.53
2023-03-11T03:06:19.506Z,3.90
2023-03-11T03:11:24.664Z,6.83
2023-03-11T03:16:29.232Z,1.80
2023-03-11T03:21:32.536Z,2.40
2023-03-11T03:26:35.974Z,2.23
2023-03-11T03:31:40.917Z,2.77
2023-03-11T03:36:44.654Z,5.10
2023-03-11T03:41:47.956Z,4.10
2023-03-11T03:46:53.133Z,3.97
2023-03-11T03:51:56.347Z,2.57
2023-03-11T03:57:07.142Z,4.33
2023-03-11T04:02:18.737Z,3.07
2023-03-11T04:07:21.933Z,3.13
2023-03-11T04:12:25.219Z,4.97
2023-03-11T04:17:29.644Z,2.57
2023-03-11T04:22:36.239Z,2.60
2023-03-11T04:27:42.683Z,3.00
2023-03-11T04:32:48.030Z,2.27
2023-03-11T04:37:51.506Z,1.73
2023-03-11T04:42:55.145Z,0.80
2023-03-11T04:48:00.026Z,1.20
2023-03-11T04:53:04.277Z,1.57
2023-03-11T04:58:07.506Z,4.63
2023-03-11T05:03:13.712Z,4.87
2023-03-11T05:08:20.158Z,4.70
2023-03-11T05:13:23.345Z,1.80
2023-03-11T05:18:31.173Z,2.03
2023-03-11T05:23:35.817Z,5.70
2023-03-11T05:28:39.225Z,2.10
2023-03-11T05:33:44.808Z,3.47
2023-03-11T05:38:49.996Z,1.83
2023-03-11T05:43:53.255Z,2.00
2023-03-11T05:48:58.127Z,2.53
2023-03-11T05:54:04.002Z,3.70
2023-03-11T05:59:16.475Z,1.50
2023-03-11T06:04:23.273Z,2.30
2023-03-11T06:09:26.718Z,1.70
2023-03-11T06:14:31.820Z,2.30
2023-03-11T06:19:38.476Z,2.60
2023-03-11T06:24:42.720Z,1.20
2023-03-11T06:29:48.773Z,1.07
2023-03-11T06:34:54.743Z,2.83
2023-03-11T06:39:59.217Z,2.20
2023-03-11T06:45:04.130Z,3.47
2023-03-11T06:50:09.700Z,3.37
2023-03-11T06:55:13.489Z,1.40
2023-03-11T07:00:18.778Z,2.87
2023-03-11T07:05:29.401Z,4.50
2023-03-11T07:10:37.531Z,4.87
2023-03-11T07:15:40.949Z,2.73
2023-03-11T07:20:45.564Z,3.13
2023-03-11T07:25:49.133Z,5.70
2023-03-11T07:30:52.956Z,4.50
2023-03-11T07:35:57.333Z,8.83
2023-03-11T07:41:00.471Z,8.07
2023-03-11T07:46:07.671Z,9.27
2023-03-11T07:51:16.912Z,5.90
2023-03-11T07:56:21.436Z,8.57
2023-03-11T08:01:26.383Z,5.73
2023-03-11T08:06:32.591Z,4.97
2023-03-11T08:11:36.128Z,5.73
2023-03-11T08:16:40.907Z,4.40
2023-03-11T08:21:45.445Z,2.23
2023-03-11T08:26:48.687Z,4.90
2023-03-11T08:31:51.876Z,4.03
2023-03-11T08:36:56.310Z,3.13
2023-03-11T08:41:59.889Z,4.77
2023-03-11T08:47:03.110Z,1.60
2023-03-11T08:52:08.096Z,3.07
2023-03-11T08:57:11.344Z,5.93
2023-03-11T09:02:14.840Z,2.80
2023-03-11T09:07:19.586Z,4.17
2023-03-11T09:12:22.728Z,3.43
2023-03-11T09:17:25.800Z,2.40
2023-03-11T09:22:30.586Z,3.23
2023-03-11T09:27:36.356Z,3.70
2023-03-11T09:32:39.608Z,1.97
2023-03-11T09:37:44.557Z,4.27
2023-03-11T09:42:58.752Z,2.63
2023-03-11T09:48:22.906Z,2.77
2023-03-11T09:53:41.768Z,1.77
2023-03-11T09:58:48.041Z,1.90
2023-03-11T10:03:53.033Z,2.87
2023-03-11T10:09:04.542Z,3.53
2023-03-11T10:14:17.088Z,3.27
2023-03-11T10:19:32.088Z,2.23
2023-03-11T10:24:51.567Z,4.07
2023-03-11T10:30:06.240Z,3.67
2023-03-11T10:35:18.156Z,4.10
2023-03-11T10:40:29.687Z,2.60
2023-03-11T10:45:41.401Z,2.20
2023-03-11T10:50:53.380Z,2.10
2023-03-11T10:55:59.497Z,3.40
2023-03-11T11:01:05.872Z,3.00
2023-03-11T11:06:21.965Z,6.47
2023-03-11T11:11:26.343Z,2.90
2023-03-11T11:16:30.403Z,4.63
2023-03-11T11:21:35.932Z,6.63
2023-03-11T11:26:40.433Z,5.90
2023-03-11T11:31:46.088Z,3.57
2023-03-11T11:36:49.430Z,3.30
2023-03-11T11:41:54.394Z,2.37
2023-03-11T11:47:01.063Z,2.50
2023-03-11T11:52:10.759Z,3.10
2023-03-11T11:57:16.932Z,2.63
2023-03-11T12:02:43.215Z,2.80
2023-03-11T12:08:01.743Z,4.93
2023-03-11T12:13:29.158Z,2.00
2023-03-11T12:18:37.838Z,2.17
2023-03-11T12:23:55.157Z,3.43
2023-03-11T12:29:05.438Z,4.10
2023-03-11T12:34:12.387Z,2.93
2023-03-11T12:39:24.945Z,2.03
2023-03-11T12:44:31.735Z,3.70
2023-03-11T12:49:37.428Z,2.03
2023-03-11T12:54:41.961Z,2.13
2023-03-11T13:00:15.077Z,2.90
2023-03-11T13:05:24.932Z,3.17
2023-03-11T13:10:40.567Z,2.47
2023-03-11T13:15:45.249Z,2.70
2023-03-11T13:20:59.352Z,2.63
2023-03-11T13:26:31.561Z,5.47
2023-03-11T13:31:55.846Z,1.43
2023-03-11T13:37:16.859Z,2.00
2023-03-11T13:42:27.903Z,3.33
2023-03-11T13:47:33.584Z,1.77
2023-03-11T13:52:40.682Z,2.83
2023-03-11T13:57:51.538Z,0.73
2023-03-11T14:02:58.047Z,1.90
2023-03-11T14:08:14.463Z,1.57
2023-03-11T14:13:47.452Z,1.27
2023-03-11T14:19:15.398Z,2.20
2023-03-11T14:24:21.313Z,0.93
2023-03-11T14:29:32.323Z,1.60
2023-03-11T14:34:42.685Z,1.97
2023-03-11T14:39:47.644Z,1.60
2023-03-11T14:45:19.592Z,1.60
2023-03-11T14:50:26.098Z,2.10
2023-03-11T14:55:33.833Z,3.37
2023-03-11T15:00:41.558Z,1.57
2023-03-11T15:05:49.883Z,3.37
2023-03-11T15:11:17.314Z,2.03
2023-03-11T15:16:27.104Z,1.30
2023-03-11T15:21:33.197Z,1.50
2023-03-11T15:26:38.333Z,1.70
2023-03-11T15:31:42.727Z,2.50
2023-03-11T15:36:57.444Z,1.77
2023-03-11T15:48:53.128Z,5.40
2023-03-11T15:54:18.189Z,1.90
2023-03-11T15:59:21.423Z,1.63
2023-03-11T16:04:24.718Z,4.97
2023-03-11T16:09:31.608Z,2.27
2023-03-11T16:14:34.696Z,4.53
2023-03-11T16:19:37.929Z,1.63
2023-03-11T16:24:43.652Z,1.60
2023-03-11T16:29:47.625Z,6.20
2023-03-11T16:34:50.777Z,3.67
2023-03-11T16:39:58.627Z,5.00
2023-03-11T16:45:03.902Z,3.03
2023-03-11T16:50:11.826Z,3.47
2023-03-11T16:55:19.683Z,3.13
2023-03-11T17:00:24.490Z,1.53
2023-03-11T17:05:27.776Z,1.60
2023-03-11T17:10:38.139Z,3.00
2023-03-11T17:15:44.366Z,2.83
2023-03-11T17:20:47.499Z,3.83
2023-03-11T17:25:52.246Z,3.10
2023-03-11T17:30:55.720Z,4.30
2023-03-11T17:36:05.093Z,3.60
2023-03-11T17:41:10.250Z,2.40
2023-03-11T17:46:15.534Z,5.23
2023-03-11T17:51:21.205Z,7.87
2023-03-11T17:56:26.479Z,8.80
2023-03-11T18:01:30.466Z,5.37
2023-03-11T18:06:33.886Z,6.90
2023-03-11T18:11:38.530Z,3.83
2023-03-11T18:16:41.710Z,5.70
2023-03-11T18:21:45.619Z,4.23
2023-03-11T18:26:50.159Z,6.10
2023-03-11T18:31:55.183Z,4.10
2023-03-11T18:36:58.540Z,8.60
2023-03-11T18:42:05.440Z,6.40
2023-03-11T18:47:08.975Z,7.37
2023-03-11T18:52:12.130Z,2.97
2023-03-11T18:57:20.118Z,3.40
2023-03-11T19:02:23.321Z,3.63
2023-03-11T19:07:26.532Z,3.90
2023-03-11T19:12:33.808Z,5.93
2023-03-11T19:17:36.998Z,14.40
2023-03-11T19:22:47.791Z,10.43
2023-03-11T19:27:52.422Z,8.53
2023-03-11T19:32:55.785Z,8.43
2023-03-11T19:37:59.500Z,8.33
2023-03-11T19:43:06.579Z,9.40
2023-03-11T19:48:13.373Z,7.03
2023-03-11T19:53:16.946Z,9.13
2023-03-11T19:58:23.973Z,6.70
2023-03-11T20:03:27.911Z,8.33
2023-03-11T20:08:36.426Z,3.70
2023-03-11T20:13:44.064Z,6.40
2023-03-11T20:18:50.219Z,3.80
2023-03-11T20:23:55.194Z,8.33
2023-03-11T20:29:00.142Z,8.27
2023-03-11T20:34:05.883Z,6.07
2023-03-11T20:39:11.527Z,7.20
2023-03-11T20:44:16.298Z,8.00
2023-03-11T20:49:19.403Z,8.57
2023-03-11T20:54:22.485Z,7.17
2023-03-11T20:59:27.212Z,6.47
2023-03-11T21:04:30.386Z,6.53
2023-03-11T21:09:33.740Z,5.70
2023-03-11T21:14:38.854Z,5.70
2023-03-11T21:19:42.227Z,5.87
2023-03-11T21:24:46.002Z,7.07
2023-03-11T21:29:50.704Z,5.63
2023-03-11T21:34:57.405Z,10.33
2023-03-11T21:40:00.756Z,10.87
2023-03-11T21:45:09.539Z,10.27
2023-03-11T21:50:13.733Z,8.33
2023-03-11T21:55:17.364Z,5.93
2023-03-11T22:00:22.576Z,5.77
2023-03-11T22:05:26.309Z,8.63
2023-03-11T22:10:29.723Z,3.53
2023-03-11T22:15:34.697Z,8.27
2023-03-11T22:20:42.652Z,6.83
2023-03-11T22:25:46.191Z,7.50
2023-03-11T22:30:50.950Z,6.80
2023-03-11T22:35:56.174Z,6.90
2023-03-11T22:41:00.395Z,8.60
2023-03-11T22:46:08.015Z,9.67
2023-03-11T22:51:11.336Z,6.47
2023-03-11T22:56:19.620Z,15.43
2023-03-11T23:01:24.174Z,3.83
2023-03-11T23:06:27.518Z,4.97
2023-03-11T23:11:30.736Z,5.83
2023-03-11T23:16:35.249Z,6.80
2023-03-11T23:21:38.857Z,9.43
2023-03-11T23:26:41.882Z,8.80
2023-03-11T23:31:46.618Z,5.57
2023-03-11T23:36:49.798Z,4.60
2023-03-11T23:41:52.839Z,4.60
2023-03-11T23:46:57.506Z,3.50
2023-03-11T23:52:00.754Z,6.87
2023-03-11T23:57:06.346Z,5.33
